Time;durP1;ratioP1;P1;durP2;ratioP2;P2;SDS_P1;SDS_P2;PMS_P1;PMS_P2;Temp;Humidity;BMP_temperature;BMP_pressure;BME280_temperature;BME280_humidity;BME280_pressure;Samples;Min_cycle;Max_cycle;Signal;HPM_P1;HPM_P2
2023/10/20 00:04:48;;;;;;;26.25;19.75;;;;;;;14.27;100.00;98462.22;10597120;27;20481;-81
2023/10/20 00:09:51;;;;;;;25.50;22.60;;;;;;;14.28;100.00;98447.50;10581031;28;20114;-81
2023/10/20 00:14:51;;;;;;;26.25;21.58;;;;;;;14.22;100.00;98454.88;10580215;28;20027;-81
2023/10/20 00:19:52;;;;;;;28.98;22.08;;;;;;;14.22;100.00;98449.44;10581981;28;20500;-81
2023/10/20 00:24:52;;;;;;;25.50;21.10;;;;;;;14.26;100.00;98466.84;10580529;28;20124;-81
2023/10/20 00:29:53;;;;;;;22.67;19.52;;;;;;;14.28;100.00;98463.84;10581141;28;20065;-81
2023/10/20 00:34:54;;;;;;;26.70;21.85;;;;;;;14.28;100.00;98452.94;10544620;28;20089;-80
2023/10/20 00:39:55;;;;;;;23.90;21.45;;;;;;;14.30;100.00;98448.84;10579554;28;20047;-80
2023/10/20 00:44:55;;;;;;;24.75;19.92;;;;;;;14.27;100.00;98426.84;10578958;28;20069;-81
2023/10/20 00:49:57;;;;;;;30.42;22.83;;;;;;;14.25;100.00;98423.56;10580160;28;20043;-80
2023/10/20 00:55:02;;;;;;;30.45;25.17;;;;;;;14.27;100.00;98405.06;10580730;28;20082;-81
2023/10/20 01:00:09;;;;;;;23.30;20.98;;;;;;;14.25;100.00;98407.25;10556201;28;20034;-81
2023/10/20 01:05:09;;;;;;;25.13;20.75;;;;;;;14.27;100.00;98405.88;10571506;28;20035;-81
2023/10/20 01:10:26;;;;;;;;;;;;;;;;;;;;;
2023/10/20 01:15:27;;;;;;;;;;;;;;;14.20;100.00;98416.25;10586502;28;20116;-78
2023/10/20 01:20:28;;;;;;;27.48;24.63;;;;;;;14.14;100.00;98399.16;10588841;28;19919;-79
2023/10/20 01:25:28;;;;;;;27.13;23.88;;;;;;;14.16;100.00;98383.31;10558273;28;20055;-79
2023/10/20 01:30:29;;;;;;;30.60;26.70;;;;;;;14.18;100.00;98383.06;10593239;28;20028;-79
2023/10/20 01:35:29;;;;;;;29.13;25.27;;;;;;;14.18;100.00;98364.00;10588404;28;20035;-79
2023/10/20 01:40:30;;;;;;;28.20;24.10;;;;;;;14.17;100.00;98355.03;10569587;28;20078;-79
2023/10/20 01:45:30;;;;;;;34.20;26.90;;;;;;;14.14;100.00;98338.47;10585676;28;20122;-79
2023/10/20 01:50:31;;;;;;;34.90;29.05;;;;;;;14.10;100.00;98321.91;10569126;28;20062;-79
2023/10/20 01:55:34;;;;;;;31.05;25.95;;;;;;;14.12;100.00;98329.75;10587544;28;20036;-79
2023/10/20 02:00:35;;;;;;;29.02;25.83;;;;;;;14.10;100.00;98319.16;10589259;28;20032;-78
2023/10/20 02:05:36;;;;;;;33.28;25.80;;;;;;;14.05;100.00;98302.06;10586978;28;20102;-79
2023/10/20 02:10:55;;;;;;;26.52;23.90;;;;;;;14.04;100.00;98279.47;10571451;28;20086;-80
2023/10/20 02:15:55;;;;;;;33.10;24.10;;;;;;;14.09;100.00;98270.47;10588951;28;20032;-79
2023/10/20 02:21:03;;;;;;;27.77;24.88;;;;;;;14.08;100.00;98261.47;10587567;28;20103;-79
2023/10/20 02:26:11;;;;;;;31.67;27.08;;;;;;;14.10;100.00;98248.41;10597709;28;20031;-78
2023/10/20 02:31:17;;;;;;;27.70;24.40;;;;;;;14.08;100.00;98247.88;10579951;28;20399;-78
2023/10/20 02:36:20;;;;;;;28.10;25.23;;;;;;;14.08;100.00;98252.50;10582196;28;20027;-79
2023/10/20 02:41:21;;;;;;;30.77;26.90;;;;;;;14.03;100.00;98239.75;10598585;28;20055;-79
2023/10/20 02:46:21;;;;;;;31.73;27.23;;;;;;;14.03;100.00;98236.22;10601545;28;20034;-79
2023/10/20 02:51:22;;;;;;;28.08;25.20;;;;;;;14.03;100.00;98234.31;10587120;28;20039;-80
2023/10/20 02:56:23;;;;;;;34.92;25.20;;;;;;;14.02;100.00;98219.09;10589695;28;20040;-79
2023/10/20 03:01:24;;;;;;;30.50;27.17;;;;;;;14.08;100.00;98217.94;10606916;28;20043;-80
2023/10/20 03:06:25;;;;;;;35.15;24.90;;;;;;;14.04;100.00;98195.13;10603487;28;20036;-80
2023/10/20 03:11:25;;;;;;;32.25;28.90;;;;;;;14.01;100.00;98201.16;10601532;28;20047;-80
2023/10/20 03:16:26;;;;;;;34.63;29.00;;;;;;;13.98;100.00;98187.31;10578890;28;20458;-80
2023/10/20 03:21:26;;;;;;;39.38;31.35;;;;;;;14.01;100.00;98187.53;10592729;28;20474;-80
2023/10/20 03:26:27;;;;;;;31.40;27.25;;;;;;;13.97;100.00;98178.31;10603908;27;20039;-80
2023/10/20 03:31:27;;;;;;;38.72;30.60;;;;;;;13.98;100.00;98170.97;10567122;28;20023;-79
2023/10/20 03:36:28;;;;;;;37.45;30.02;;;;;;;14.03;100.00;98160.84;10583351;28;20481;-80
2023/10/20 03:41:29;;;;;;;38.65;33.05;;;;;;;14.05;100.00;98166.00;10565389;28;20452;-80
2023/10/20 03:46:43;;;;;;;41.63;34.78;;;;;;;14.02;100.00;98156.50;10582899;28;20028;-80
2023/10/20 03:51:53;;;;;;;52.40;34.63;;;;;;;13.92;100.00;98138.38;10581340;28;20409;-80
2023/10/20 03:56:56;;;;;;;40.22;35.13;;;;;;;13.95;100.00;98139.72;10565527;28;20042;-80
2023/10/20 04:01:56;;;;;;;44.50;36.50;;;;;;;13.83;100.00;98133.84;10580202;27;20027;-80
2023/10/20 04:06:57;;;;;;;46.55;36.08;;;;;;;13.70;100.00;98122.53;10564810;28;20101;-80
2023/10/20 04:12:00;;;;;;;36.13;30.05;;;;;;;13.67;100.00;98128.53;10581075;28;20085;-81
2023/10/20 04:17:03;;;;;;;48.38;37.38;;;;;;;13.66;100.00;98104.34;10547994;28;20544;-80
2023/10/20 04:22:12;;;;;;;43.33;33.72;;;;;;;13.66;100.00;98099.72;10579313;28;20462;-80
2023/10/20 04:27:21;;;;;;;42.85;35.90;;;;;;;13.56;100.00;98101.72;10564273;28;20032;-81
2023/10/20 04:43:36;;;;;;;45.50;33.20;;;;;;;13.34;100.00;98092.13;10580148;28;20047;-80
2023/10/20 04:49:11;;;;;;;47.92;34.30;;;;;;;13.24;100.00;98073.13;10578402;28;20125;-80
2023/10/20 04:53:53;;;;;;;52.42;31.13;;;;;;;13.08;100.00;98066.19;10580654;28;20342;-80
2023/10/20 05:04:10;;;;;;;53.70;32.85;;;;;;;12.99;100.00;98058.66;10579334;28;20039;-80
2023/10/20 05:09:17;;;;;;;;;;;;;;;12.95;100.00;98041.28;10579182;28;20044;-81
2023/10/20 05:14:21;;;;;;;38.97;30.63;;;;;;;12.88;100.00;98031.84;10579404;28;19919;-80
2023/10/20 05:19:21;;;;;;;40.55;29.77;;;;;;;12.76;100.00;98018.63;10579885;28;20123;-80
2023/10/20 05:24:22;;;;;;;42.03;29.90;;;;;;;12.65;100.00;97998.06;10562112;28;20407;-81
2023/10/20 05:29:23;;;;;;;43.00;31.92;;;;;;;12.48;100.00;97987.59;10577951;28;20460;-80
2023/10/20 05:34:23;;;;;;;42.58;27.42;;;;;;;12.37;100.00;98002.31;10579458;28;20481;-80
2023/10/20 05:39:24;;;;;;;49.97;32.13;;;;;;;12.43;100.00;98003.91;10579844;28;20074;-80
2023/10/20 05:44:24;;;;;;;41.40;31.73;;;;;;;12.44;100.00;97991.97;10587245;28;20053;-80
2023/10/20 05:49:26;;;;;;;48.60;32.05;;;;;;;12.30;100.00;97998.00;10586012;28;20126;-80
2023/10/20 05:54:28;;;;;;;31.13;25.25;;;;;;;12.08;100.00;97997.56;10602937;28;20036;-79
2023/10/20 05:59:29;;;;;;;41.85;30.30;;;;;;;12.02;100.00;97983.22;10605730;28;20110;-79
2023/10/20 06:04:29;;;;;;;41.85;29.58;;;;;;;11.99;100.00;97996.53;10591800;28;20031;-78
2023/10/20 06:09:30;;;;;;;49.83;31.58;;;;;;;11.92;100.00;97993.31;10584480;28;20047;-78
2023/10/20 06:14:30;;;;;;;35.70;27.83;;;;;;;11.86;100.00;97987.09;10586065;28;20111;-76
2023/10/20 06:19:39;;;;;;;33.83;24.98;;;;;;;11.74;100.00;98000.94;10585251;28;20066;-75
2023/10/20 06:24:39;;;;;;;37.75;28.35;;;;;;;11.73;100.00;97999.31;10584093;28;20044;-76
2023/10/20 06:29:55;;;;;;;27.98;25.10;;;;;;;11.68;100.00;97995.78;10583669;28;20036;-76
2023/10/20 06:35:02;;;;;;;36.92;23.50;;;;;;;11.63;100.00;97996.63;10601417;27;20110;-77
2023/10/20 06:40:06;;;;;;;32.92;24.67;;;;;;;11.59;100.00;97965.75;10566779;28;20048;-79
2023/10/20 06:45:06;;;;;;;33.72;22.90;;;;;;;11.61;100.00;97977.13;10582435;28;20052;-79
2023/10/20 06:50:10;;;;;;;1.30;1.30;;;;;;;11.50;100.00;97984.47;10583098;28;20039;-78
2023/10/20 06:55:10;;;;;;;2.05;2.05;;;;;;;11.44;100.00;97982.84;10582254;27;20343;-78
2023/10/20 07:00:17;;;;;;;2.33;1.73;;;;;;;11.43;100.00;97983.16;10582044;28;20031;-77
2023/10/20 07:05:17;;;;;;;;;;;;;;;11.41;100.00;97994.25;10584487;27;20112;-77
2023/10/20 07:10:21;;;;;;;4.63;4.32;;;;;;;11.37;100.00;97985.84;10583521;28;19918;-75
2023/10/20 07:15:21;;;;;;;2.28;2.17;;;;;;;11.37;100.00;97972.31;10583903;28;20035;-74
2023/10/20 07:20:22;;;;;;;0.57;0.57;;;;;;;11.40;100.00;97969.06;10581173;28;20038;-73
2023/10/20 07:25:22;;;;;;;1.70;1.65;;;;;;;11.26;100.00;97965.28;10582703;28;20032;-74
2023/10/20 07:30:23;;;;;;;0.40;0.40;;;;;;;11.23;100.00;97951.47;10564690;28;20057;-75
2023/10/20 07:35:24;;;;;;;1.55;1.55;;;;;;;11.15;100.00;97947.44;10580871;28;20481;-74
2023/10/20 07:40:26;;;;;;;0.45;0.45;;;;;;;11.04;100.00;97962.06;10580144;28;20048;-76
2023/10/20 07:45:28;;;;;;;4.28;2.88;;;;;;;11.05;100.00;97961.00;10582808;28;20054;-75
2023/10/20 07:50:28;;;;;;;0.70;0.70;;;;;;;11.03;100.00;97973.97;10582366;28;20090;-74
2023/10/20 07:55:28;;;;;;;1.42;1.42;;;;;;;10.91;100.00;97949.88;10596710;27;20070;-75
2023/10/20 08:00:29;;;;;;;4.88;1.95;;;;;;;10.87;100.00;97941.50;10578695;28;20478;-74
2023/10/20 08:05:30;;;;;;;0.80;0.80;;;;;;;10.82;100.00;97941.53;10596144;27;20059;-75
2023/10/20 08:10:30;;;;;;;3.20;1.27;;;;;;;10.75;100.00;97932.84;10581084;28;20032;-74
2023/10/20 08:15:36;;;;;;;3.47;1.38;;;;;;;10.64;100.00;97906.88;10579656;28;20356;-74
2023/10/20 08:20:37;;;;;;;0.98;0.98;;;;;;;10.59;100.00;97915.81;10579297;28;20196;-76
2023/10/20 08:25:37;;;;;;;1.83;1.80;;;;;;;10.60;100.00;97924.75;10579566;28;20118;-75
2023/10/20 08:30:38;;;;;;;1.40;1.40;;;;;;;10.54;100.00;97923.13;10562134;28;20119;-77
2023/10/20 08:35:38;;;;;;;1.02;1.02;;;;;;;10.50;100.00;97917.44;10579531;28;20367;-76
2023/10/20 08:40:39;;;;;;;0.50;0.50;;;;;;;10.43;100.00;97912.31;10578785;28;20087;-76
2023/10/20 08:45:39;;;;;;;0.80;0.80;;;;;;;10.37;100.00;97918.78;10579709;28;20028;-76
2023/10/20 08:50:39;;;;;;;0.82;0.82;;;;;;;10.40;100.00;97925.53;10578202;28;20024;-76
2023/10/20 08:55:40;;;;;;;4.40;3.53;;;;;;;10.34;100.00;97911.22;10561179;28;20031;-75
2023/10/20 09:00:40;;;;;;;0.70;0.70;;;;;;;10.34;100.00;97916.63;10577403;28;20440;-76
2023/10/20 09:05:41;;;;;;;0.75;0.75;;;;;;;10.31;100.00;97921.75;10577652;28;20039;-77
2023/10/20 09:10:42;;;;;;;1.90;1.80;;;;;;;10.21;100.00;97909.81;10579566;28;20119;-78
2023/10/20 09:15:43;;;;;;;1.08;1.08;;;;;;;10.19;100.00;97922.78;10579657;28;20092;-79
2023/10/20 09:20:43;;;;;;;0.65;0.65;;;;;;;10.21;100.00;97919.78;10588619;28;20071;-78
2023/10/20 09:25:44;;;;;;;0.77;0.77;;;;;;;10.19;100.00;97906.56;10602188;27;20390;-78
2023/10/20 09:30:44;;;;;;;1.83;1.75;;;;;;;10.16;100.00;97898.97;10585707;28;20034;-78
2023/10/20 09:35:45;;;;;;;0.57;0.57;;;;;;;10.14;100.00;97900.31;10586128;28;20039;-78
2023/10/20 09:40:45;;;;;;;0.40;0.40;;;;;;;10.13;100.00;97893.28;10567893;28;20043;-78
2023/10/20 09:45:47;;;;;;;0.30;0.30;;;;;;;10.07;100.00;97888.97;10586162;28;20034;-79
2023/10/20 09:50:48;;;;;;;1.13;1.13;;;;;;;10.09;100.00;97884.09;10552052;28;20123;-78
2023/10/20 09:55:49;;;;;;;0.32;0.32;;;;;;;10.09;100.00;97871.38;10586087;28;20031;-78
2023/10/20 10:00:50;;;;;;;0.90;0.90;;;;;;;10.08;100.00;97866.22;10585907;28;20028;-77
2023/10/20 10:05:51;;;;;;;0.80;0.80;;;;;;;10.10;100.00;97873.00;10584741;28;20093;-77
2023/10/20 10:10:51;;;;;;;0.40;0.40;;;;;;;10.06;100.00;97865.72;10567320;28;20551;-75
2023/10/20 10:15:53;;;;;;;0.50;0.50;;;;;;;10.06;100.00;97873.81;10584210;28;20032;-75
2023/10/20 10:20:54;;;;;;;19.25;3.88;;;;;;;10.04;100.00;97881.38;10585484;28;20105;-75
2023/10/20 10:25:54;;;;;;;1.55;1.55;;;;;;;10.02;100.00;97868.16;10583958;28;20066;-75
2023/10/20 10:30:54;;;;;;;0.30;0.30;;;;;;;9.97;100.00;97874.34;10582503;28;20110;-75
2023/10/20 10:36:03;;;;;;;0.40;0.40;;;;;;;9.84;100.00;97855.94;10582537;28;20071;-76
2023/10/20 10:41:03;;;;;;;1.80;1.65;;;;;;;9.91;100.00;97855.69;10584283;28;20143;-74
2023/10/20 10:46:05;;;;;;;0.52;0.52;;;;;;;9.85;100.00;97841.34;10585351;28;20023;-76
2023/10/20 10:51:05;;;;;;;0.55;0.55;;;;;;;9.70;100.00;97842.13;10565891;28;20374;-75
2023/10/20 10:56:07;;;;;;;0.40;0.40;;;;;;;9.70;100.00;97819.69;10583512;28;20058;-75
2023/10/20 11:01:09;;;;;;;0.32;0.32;;;;;;;9.80;100.00;97808.09;10565129;28;20047;-75
2023/10/20 11:06:09;;;;;;;0.40;0.40;;;;;;;9.78;100.00;97816.47;10582238;28;20036;-74
2023/10/20 11:11:09;;;;;;;0.50;0.50;;;;;;;9.89;100.00;97801.06;10582863;28;20032;-74
2023/10/20 11:16:10;;;;;;;0.32;0.32;;;;;;;9.75;100.00;97798.09;10582106;28;20039;-75
2023/10/20 11:21:14;;;;;;;0.50;0.50;;;;;;;9.70;100.00;97790.78;10581860;28;20113;-75
2023/10/20 11:26:17;;;;;;;0.45;0.45;;;;;;;9.77;100.00;97785.13;10563749;28;20035;-76
2023/10/20 11:31:19;;;;;;;0.50;0.50;;;;;;;9.74;100.00;97774.84;10581732;28;20039;-75
2023/10/20 11:36:19;;;;;;;0.60;0.60;;;;;;;9.80;100.00;97767.56;10580265;28;20028;-76
2023/10/20 11:41:19;;;;;;;0.63;0.63;;;;;;;9.88;100.00;97759.72;10579158;28;20044;-76
2023/10/20 11:46:20;;;;;;;1.15;1.15;;;;;;;9.78;100.00;97765.94;10579112;28;20031;-76
2023/10/20 11:51:20;;;;;;;0.43;0.43;;;;;;;9.77;100.00;97758.09;10579797;28;20120;-77
2023/10/20 11:56:20;;;;;;;0.40;0.40;;;;;;;9.86;100.00;97745.69;10581814;28;20470;-77
2023/10/20 12:01:21;;;;;;;0.32;0.32;;;;;;;9.75;100.00;97739.44;10581109;28;20054;-75
2023/10/20 12:06:21;;;;;;;0.40;0.40;;;;;;;9.89;100.00;97736.19;10580117;28;20474;-76
2023/10/20 12:11:22;;;;;;;0.30;0.30;;;;;;;9.82;100.00;97744.56;10582704;28;20118;-76
2023/10/20 12:16:24;;;;;;;0.40;0.40;;;;;;;9.87;100.00;97730.28;10579661;28;20031;-76
2023/10/20 12:21:25;;;;;;;0.55;0.55;;;;;;;9.98;100.00;97726.47;10579204;27;20050;-74
2023/10/20 12:26:26;;;;;;;0.32;0.32;;;;;;;9.89;100.00;97726.22;10579817;28;20032;-75
2023/10/20 12:31:28;;;;;;;0.40;0.40;;;;;;;9.98;100.00;97727.28;10580110;28;20043;-76
2023/10/20 12:36:31;;;;;;;0.40;0.40;;;;;;;9.99;100.00;97742.44;10579214;28;20024;-75
2023/10/20 12:41:32;;;;;;;0.55;0.55;;;;;;;10.00;100.00;97744.03;10578058;28;20134;-76
2023/10/20 12:46:32;;;;;;;0.40;0.40;;;;;;;10.02;100.00;97747.31;10578303;28;20032;-77
2023/10/20 12:51:33;;;;;;;1.45;1.45;;;;;;;10.05;100.00;97750.53;10578577;28;20031;-76
2023/10/20 12:56:34;;;;;;;0.43;0.43;;;;;;;10.05;100.00;97754.06;10577945;28;20032;-76
2023/10/20 13:01:35;;;;;;;0.40;0.40;;;;;;;10.10;100.00;97737.81;10579265;28;20058;-74
2023/10/20 13:06:35;;;;;;;0.30;0.30;;;;;;;10.27;100.00;97739.44;10578995;28;20108;-77
2023/10/20 13:11:36;;;;;;;0.60;0.60;;;;;;;10.45;100.00;97731.56;10579037;28;20032;-79
2023/10/20 13:16:37;;;;;;;0.38;0.38;;;;;;;10.51;100.00;97739.69;10560348;28;20046;-78
2023/10/20 13:21:37;;;;;;;0.40;0.40;;;;;;;10.51;100.00;97728.88;10577671;28;20040;-78
2023/10/20 13:26:38;;;;;;;0.80;0.80;;;;;;;10.52;100.00;97725.88;10578422;28;20031;-79
2023/10/20 13:31:38;;;;;;;0.50;0.50;;;;;;;10.48;100.00;97725.59;10579305;28;20027;-80
2023/10/20 13:36:38;;;;;;;0.40;0.40;;;;;;;10.64;100.00;97728.28;10579301;28;20023;-78
2023/10/20 13:41:39;;;;;;;0.38;0.38;;;;;;;10.63;100.00;97732.09;10576889;28;20059;-79
2023/10/20 13:46:39;;;;;;;0.50;0.50;;;;;;;10.69;100.00;97728.28;10578594;28;20032;-78
2023/10/20 13:51:40;;;;;;;0.50;0.50;;;;;;;10.72;100.00;97735.84;10576831;28;20039;-78
2023/10/20 13:56:40;;;;;;;0.40;0.40;;;;;;;10.81;100.00;97739.56;10577713;28;20159;-77
2023/10/20 14:01:41;;;;;;;0.43;0.43;;;;;;;10.88;100.00;97734.69;10595751;28;20036;-76
2023/10/20 14:06:41;;;;;;;1.27;1.10;;;;;;;11.00;100.00;97738.97;10585657;28;20439;-76
2023/10/20 14:11:42;;;;;;;0.47;0.47;;;;;;;11.05;100.00;97737.03;10566577;28;20071;-75
2023/10/20 14:16:43;;;;;;;0.32;0.32;;;;;;;11.12;100.00;97736.75;10583472;28;20042;-75
2023/10/20 14:21:43;;;;;;;0.38;0.38;;;;;;;11.20;100.00;97740.75;10583620;28;20035;-75
2023/10/20 14:26:44;;;;;;;0.40;0.40;;;;;;;11.28;100.00;97743.69;10584735;28;20036;-74
2023/10/20 14:31:44;;;;;;;0.40;0.40;;;;;;;11.21;100.00;97742.41;10600854;27;20481;-74
2023/10/20 14:36:45;;;;;;;0.32;0.32;;;;;;;11.33;100.00;97735.56;10584389;28;20114;-76
2023/10/20 14:41:46;;;;;;;0.40;0.40;;;;;;;11.43;100.00;97733.88;10582930;28;20089;-75
2023/10/20 14:46:46;;;;;;;0.45;0.45;;;;;;;11.57;100.00;97732.94;10584779;28;20139;-75
2023/10/20 14:51:47;;;;;;;1.40;1.30;;;;;;;11.68;100.00;97731.00;10584997;28;20043;-75
2023/10/20 14:56:47;;;;;;;0.43;0.43;;;;;;;11.80;100.00;97726.00;10581614;28;20505;-75
2023/10/20 15:01:48;;;;;;;1.38;1.27;;;;;;;11.83;100.00;97720.00;10583546;28;20042;-75
2023/10/20 15:06:48;;;;;;;0.40;0.40;;;;;;;11.93;100.00;97715.63;10582362;28;20389;-75
2023/10/20 15:11:49;;;;;;;0.30;0.30;;;;;;;12.02;100.00;97713.94;10582076;28;20036;-75
2023/10/20 15:16:49;;;;;;;0.45;0.45;;;;;;;12.08;100.00;97719.00;10598771;27;20122;-75
2023/10/20 15:21:50;;;;;;;1.65;1.52;;;;;;;12.11;100.00;97709.50;10582644;28;20043;-75
2023/10/20 15:26:51;;;;;;;0.73;0.73;;;;;;;12.24;100.00;97697.97;10581042;28;20028;-75
2023/10/20 15:31:52;;;;;;;0.57;0.57;;;;;;;12.36;100.00;97713.88;10581920;28;20127;-74
2023/10/20 15:36:53;;;;;;;1.40;1.40;;;;;;;12.48;100.00;97716.22;10581937;28;20056;-75
2023/10/20 15:41:54;;;;;;;0.55;0.55;;;;;;;12.63;100.00;97718.72;10580296;28;20078;-75
2023/10/20 15:46:55;;;;;;;0.65;0.65;;;;;;;12.76;100.00;97714.50;10581113;28;20028;-74
2023/10/20 15:51:55;;;;;;;0.68;0.68;;;;;;;12.95;100.00;97723.50;10581060;28;20454;-75
2023/10/20 15:56:56;;;;;;;0.50;0.50;;;;;;;13.19;100.00;97709.91;10581716;28;20038;-74
2023/10/20 16:01:57;;;;;;;0.68;0.68;;;;;;;13.48;100.00;97717.94;10579848;28;20031;-74
2023/10/20 16:06:57;;;;;;;1.50;1.50;;;;;;;13.64;100.00;97710.34;10580308;28;20047;-74
2023/10/20 16:11:58;;;;;;;0.80;0.80;;;;;;;13.77;100.00;97718.88;10578954;28;20040;-75
2023/10/20 16:16:58;;;;;;;0.50;0.50;;;;;;;13.85;100.00;97731.81;10578461;28;20042;-74
2023/10/20 16:21:59;;;;;;;0.50;0.50;;;;;;;13.85;100.00;97731.81;10578501;28;20453;-75
2023/10/20 16:27:04;;;;;;;0.90;0.90;;;;;;;13.85;100.00;97732.63;10595124;27;20040;-74
2023/10/20 16:32:04;;;;;;;0.88;0.88;;;;;;;13.91;100.00;97747.75;10580670;28;20114;-75
2023/10/20 16:37:05;;;;;;;1.30;1.30;;;;;;;13.95;100.00;97751.50;10579902;28;20024;-75
2023/10/20 16:42:06;;;;;;;10.13;4.18;;;;;;;13.99;100.00;97754.41;10595718;27;20067;-75
2023/10/20 16:47:06;;;;;;;1.17;1.17;;;;;;;13.94;100.00;97751.78;10561574;28;20032;-75
2023/10/20 16:52:07;;;;;;;1.30;1.30;;;;;;;14.00;100.00;97772.34;10578190;28;20042;-75
2023/10/20 16:57:07;;;;;;;0.93;0.93;;;;;;;14.02;100.00;97775.59;10580121;28;20066;-75
2023/10/20 17:02:09;;;;;;;0.47;0.47;;;;;;;14.07;100.00;97771.97;10578940;28;20046;-75
2023/10/20 17:07:09;;;;;;;0.40;0.40;;;;;;;14.09;100.00;97792.34;10577649;28;20471;-75
2023/10/20 17:12:09;;;;;;;2.10;2.00;;;;;;;14.09;100.00;97789.63;10579289;28;20118;-74
2023/10/20 17:17:10;;;;;;;0.68;0.68;;;;;;;14.07;100.00;97791.00;10577572;28;20027;-75
2023/10/20 17:22:10;;;;;;;1.20;1.20;;;;;;;14.01;100.00;97790.31;10578816;28;20055;-75
2023/10/20 17:27:11;;;;;;;1.08;1.08;;;;;;;13.97;100.00;97794.69;10578008;28;20114;-75
2023/10/20 17:32:13;;;;;;;0.98;0.98;;;;;;;13.93;100.00;97793.69;10578954;28;20044;-75
2023/10/20 17:37:13;;;;;;;0.60;0.60;;;;;;;13.93;100.00;97801.84;10580500;28;20028;-75
2023/10/20 17:42:14;;;;;;;0.80;0.80;;;;;;;13.93;100.00;97805.38;10601581;27;20116;-75
2023/10/20 17:47:14;;;;;;;0.80;0.80;;;;;;;13.93;100.00;97807.28;10586553;28;20088;-76
2023/10/20 17:52:15;;;;;;;1.75;1.65;;;;;;;13.91;100.00;97831.25;10567879;28;20449;-76
2023/10/20 17:57:15;;;;;;;0.85;0.85;;;;;;;13.94;100.00;97836.09;10585856;28;20027;-76
2023/10/20 18:02:16;;;;;;;5.82;2.40;;;;;;;13.92;100.00;97838.31;10585979;28;20434;-76
2023/10/20 18:07:17;;;;;;;0.57;0.57;;;;;;;13.91;100.00;97833.97;10586445;28;20117;-76
2023/10/20 18:12:17;;;;;;;0.82;0.82;;;;;;;13.88;100.00;97840.81;10586699;28;20089;-76
2023/10/20 18:17:18;;;;;;;0.40;0.40;;;;;;;13.88;100.00;97848.16;10586164;28;20040;-76
2023/10/20 18:22:19;;;;;;;0.40;0.40;;;;;;;13.81;100.00;97845.81;10585779;28;20362;-76
2023/10/20 18:27:19;;;;;;;0.60;0.60;;;;;;;13.76;100.00;97845.88;10585206;28;20042;-76
2023/10/20 18:32:20;;;;;;;0.70;0.70;;;;;;;13.74;100.00;97853.53;10583095;28;20047;-77
2023/10/20 18:37:21;;;;;;;0.47;0.47;;;;;;;13.74;100.00;97867.13;10599941;27;20024;-77
2023/10/20 18:42:21;;;;;;;0.70;0.70;;;;;;;13.75;100.00;97871.44;10584654;28;20173;-75
2023/10/20 18:47:22;;;;;;;0.50;0.50;;;;;;;13.69;100.00;97876.16;10582467;28;20116;-75
2023/10/20 18:52:23;;;;;;;0.90;0.90;;;;;;;13.65;100.00;97871.59;10584206;28;20032;-78
2023/10/20 18:57:23;;;;;;;3.30;2.35;;;;;;;13.57;100.00;97883.94;10584189;28;20028;-77
2023/10/20 19:02:24;;;;;;;0.40;0.40;;;;;;;13.47;100.00;97882.16;10566121;28;20520;-77
2023/10/20 19:07:24;;;;;;;0.50;0.50;;;;;;;13.42;100.00;97881.38;10581608;28;20023;-77
2023/10/20 19:12:25;;;;;;;1.63;1.60;;;;;;;13.29;100.00;97898.41;10582280;28;20028;-77
2023/10/20 19:17:25;;;;;;;1.90;1.02;;;;;;;13.29;100.00;97903.84;10583435;28;20030;-77
2023/10/20 19:22:26;;;;;;;0.40;0.40;;;;;;;13.24;100.00;97916.38;10598794;27;20036;-77
2023/10/20 19:27:26;;;;;;;0.65;0.65;;;;;;;13.22;100.00;97923.16;10581363;28;20032;-76
2023/10/20 19:32:27;;;;;;;0.57;0.57;;;;;;;13.18;100.00;97941.97;10579958;28;20562;-77
2023/10/20 19:37:27;;;;;;;0.40;0.40;;;;;;;13.19;100.00;97948.19;10582695;28;20378;-77
2023/10/20 19:42:28;;;;;;;0.50;0.50;;;;;;;13.10;100.00;97948.00;10582864;28;20379;-77
2023/10/20 19:47:28;;;;;;;0.60;0.60;;;;;;;13.13;100.00;97952.84;10581044;28;20039;-77
2023/10/20 19:52:28;;;;;;;0.60;0.60;;;;;;;13.06;100.00;97960.53;10582664;28;20336;-76
2023/10/20 19:57:29;;;;;;;0.60;0.60;;;;;;;13.09;100.00;97970.84;10579973;28;20027;-76
2023/10/20 20:02:29;;;;;;;0.65;0.65;;;;;;;13.06;100.00;97982.28;10582136;28;20040;-77
2023/10/20 20:07:30;;;;;;;1.17;1.17;;;;;;;13.07;100.00;97994.75;10598999;27;20031;-78
2023/10/20 20:12:30;;;;;;;0.68;0.68;;;;;;;13.10;100.00;98005.06;10583262;28;20065;-77
2023/10/20 20:17:30;;;;;;;0.77;0.77;;;;;;;13.10;100.00;98015.91;10581529;28;20028;-76
2023/10/20 20:22:31;;;;;;;0.85;0.85;;;;;;;13.11;100.00;98008.56;10584047;28;20039;-77
2023/10/20 20:27:31;;;;;;;0.52;0.52;;;;;;;13.08;100.00;98026.28;10581070;28;20046;-76
2023/10/20 20:32:32;;;;;;;0.80;0.80;;;;;;;13.09;100.00;98022.47;10582054;28;20032;-77
2023/10/20 20:37:33;;;;;;;2.83;1.75;;;;;;;13.08;100.00;98029.00;10580658;28;20039;-77
2023/10/20 20:42:33;;;;;;;0.50;0.50;;;;;;;13.03;100.00;98034.47;10582471;28;20459;-76
2023/10/20 20:47:33;;;;;;;0.50;0.50;;;;;;;13.05;100.00;98048.56;10580184;28;20391;-77
2023/10/20 20:52:36;;;;;;;1.80;1.80;;;;;;;13.02;100.00;98044.53;10579979;28;20063;-77
2023/10/20 20:57:36;;;;;;;0.95;0.95;;;;;;;12.98;100.00;98046.16;10580078;28;20103;-77
2023/10/20 21:02:37;;;;;;;0.90;0.90;;;;;;;12.96;100.00;98048.38;10562754;28;20451;-77
2023/10/20 21:07:38;;;;;;;0.57;0.57;;;;;;;13.00;100.00;98063.00;10580366;28;20028;-76
2023/10/20 21:12:38;;;;;;;0.90;0.90;;;;;;;12.97;100.00;98066.28;10599061;28;20176;-76
2023/10/20 21:17:39;;;;;;;0.93;0.93;;;;;;;12.97;100.00;98065.47;10587055;28;20386;-76
2023/10/20 21:22:39;;;;;;;2.55;1.50;;;;;;;13.04;100.00;98064.03;10588814;28;20060;-76
2023/10/20 21:27:40;;;;;;;1.10;1.10;;;;;;;13.12;100.00;98072.72;10589097;28;20039;-76
2023/10/20 21:32:40;;;;;;;1.13;1.05;;;;;;;13.12;100.00;98072.72;10587095;28;20514;-76
2023/10/20 21:37:40;;;;;;;0.57;0.57;;;;;;;13.09;100.00;98078.69;10588503;28;20056;-77
2023/10/20 21:42:41;;;;;;;2.17;1.75;;;;;;;13.13;100.00;98086.00;10586869;28;20386;-76
2023/10/20 21:47:41;;;;;;;0.93;0.93;;;;;;;13.07;100.00;98081.69;10585808;28;20043;-78
2023/10/20 21:52:42;;;;;;;0.50;0.50;;;;;;;12.97;100.00;98081.78;10587102;28;20039;-77
2023/10/20 21:57:42;;;;;;;0.43;0.43;;;;;;;12.99;100.00;98096.69;10586686;27;20028;-76
2023/10/20 22:02:43;;;;;;;0.60;0.60;;;;;;;12.96;100.00;98102.69;10586057;28;20092;-76
2023/10/20 22:07:43;;;;;;;1.23;1.23;;;;;;;13.00;100.00;98108.38;10567751;28;20047;-77
2023/10/20 22:12:44;;;;;;;0.75;0.75;;;;;;;13.23;100.00;98123.94;10551469;28;20027;-77
2023/10/20 22:17:44;;;;;;;1.73;1.70;;;;;;;13.31;100.00;98127.22;10587134;28;20181;-78
2023/10/20 22:22:45;;;;;;;0.50;0.50;;;;;;;13.31;100.00;98128.03;10584677;28;20036;-77
2023/10/20 22:27:48;;;;;;;0.40;0.40;;;;;;;13.34;100.00;98121.22;10585981;28;20110;-77
2023/10/20 22:32:48;;;;;;;3.20;1.70;;;;;;;13.15;100.00;98127.28;10603587;27;20040;-78
2023/10/20 22:37:49;;;;;;;1.77;1.75;;;;;;;13.07;100.00;98125.16;10585681;28;20028;-77
2023/10/20 22:42:50;;;;;;;0.60;0.60;;;;;;;13.01;100.00;98129.81;10584436;28;20089;-77
2023/10/20 22:47:50;;;;;;;0.60;0.60;;;;;;;12.91;100.00;98139.94;10584007;28;20367;-77
2023/10/20 22:52:51;;;;;;;0.90;0.90;;;;;;;12.85;100.00;98144.56;10584917;28;20040;-77
2023/10/20 22:57:51;;;;;;;0.60;0.60;;;;;;;12.87;100.00;98155.16;10583930;28;20435;-78
2023/10/20 23:02:52;;;;;;;11.43;4.15;;;;;;;12.82;100.00;98152.47;10584412;28;20104;-76
2023/10/20 23:07:52;;;;;;;0.90;0.90;;;;;;;12.76;100.00;98149.78;10584336;28;20032;-78
2023/10/20 23:12:52;;;;;;;2.42;2.25;;;;;;;12.73;100.00;98163.09;10583016;28;20060;-77
2023/10/20 23:17:53;;;;;;;0.50;0.50;;;;;;;12.72;100.00;98170.44;10584686;28;20122;-77